createdAt,value
2017-12-24T00:01:42.770Z,13.20
2017-12-24T00:04:11.690Z,13.03
2017-12-24T00:06:40.535Z,12.47
2017-12-24T00:09:09.615Z,12.63
2017-12-24T00:11:38.514Z,12.50
2017-12-24T00:14:07.356Z,11.37
2017-12-24T00:16:36.197Z,11.83
2017-12-24T00:19:05.093Z,11.23
2017-12-24T00:21:33.948Z,11.77
2017-12-24T00:24:02.797Z,10.73
2017-12-24T00:26:31.686Z,11.23
2017-12-24T00:29:01.450Z,11.57
2017-12-24T00:31:30.357Z,11.47
2017-12-24T00:33:59.227Z,11.07
2017-12-24T00:36:28.066Z,11.03
2017-12-24T00:38:56.954Z,12.33
2017-12-24T00:41:25.823Z,11.47
2017-12-24T00:43:54.697Z,11.60
2017-12-24T00:46:23.538Z,10.83
2017-12-24T00:48:52.411Z,10.80
2017-12-24T00:51:21.302Z,11.33
2017-12-24T00:53:50.143Z,11.27
2017-12-24T00:56:19.019Z,10.63
2017-12-24T00:58:47.861Z,11.13
2017-12-24T01:01:16.733Z,10.90
2017-12-24T01:03:45.631Z,10.67
2017-12-24T01:06:14.471Z,11.13
2017-12-24T01:08:43.363Z,11.17
2017-12-24T01:11:12.228Z,9.60
2017-12-24T01:13:41.077Z,10.50
2017-12-24T01:16:10.983Z,10.37
2017-12-24T01:18:39.842Z,9.83
2017-12-24T01:21:08.707Z,9.93
2017-12-24T01:23:37.549Z,9.50
2017-12-24T01:26:06.431Z,10.33
2017-12-24T01:28:35.647Z,10.30
2017-12-24T01:31:04.496Z,11.00
2017-12-24T01:33:33.397Z,10.87
2017-12-24T01:36:02.234Z,10.50
2017-12-24T01:38:31.081Z,9.37
2017-12-24T01:40:59.982Z,10.70
2017-12-24T01:43:28.845Z,10.60
2017-12-24T01:45:57.697Z,9.97
2017-12-24T01:48:26.563Z,10.83
2017-12-24T01:50:55.428Z,9.53
2017-12-24T01:53:24.329Z,9.93
2017-12-24T01:55:53.218Z,9.43
2017-12-24T01:58:22.111Z,9.73
2017-12-24T02:00:51.935Z,9.27
2017-12-24T02:03:20.799Z,9.40
2017-12-24T02:05:49.661Z,9.43
2017-12-24T02:08:18.495Z,9.53
2017-12-24T02:10:47.391Z,9.90
2017-12-24T02:13:16.237Z,9.23
2017-12-24T02:15:45.097Z,9.23
2017-12-24T02:18:14.833Z,9.33
2017-12-24T02:20:43.674Z,8.93
2017-12-24T02:23:12.514Z,8.67
2017-12-24T02:25:41.387Z,9.53
2017-12-24T02:28:10.214Z,9.37
2017-12-24T02:30:39.115Z,9.17
2017-12-24T02:33:08.912Z,9.73
2017-12-24T02:35:38.667Z,10.47
2017-12-24T02:38:07.778Z,10.17
2017-12-24T02:40:36.619Z,10.13
2017-12-24T02:43:05.807Z,10.63
2017-12-24T02:45:34.681Z,9.97
2017-12-24T02:48:03.557Z,10.00
2017-12-24T02:50:32.401Z,10.17
2017-12-24T02:53:01.265Z,10.40
2017-12-24T02:55:30.133Z,10.40
2017-12-24T02:57:58.979Z,9.27
2017-12-24T03:00:27.841Z,10.20
2017-12-24T03:02:57.642Z,9.57
2017-12-24T03:05:26.480Z,10.30
2017-12-24T03:07:55.353Z,10.27
2017-12-24T03:10:24.191Z,10.13
2017-12-24T03:12:53.077Z,9.80
2017-12-24T03:15:21.944Z,9.50
2017-12-24T03:17:50.782Z,9.63
2017-12-24T03:20:19.671Z,10.33
2017-12-24T03:22:48.525Z,9.17
2017-12-24T03:25:17.515Z,9.80
2017-12-24T03:27:46.405Z,9.03
2017-12-24T03:30:15.283Z,9.17
2017-12-24T03:32:44.142Z,8.67
2017-12-24T03:35:12.975Z,8.60
2017-12-24T03:37:41.857Z,8.83
2017-12-24T03:40:10.698Z,9.60
2017-12-24T03:42:39.532Z,9.70
2017-12-24T03:45:09.139Z,9.10
2017-12-24T03:47:37.973Z,9.27
2017-12-24T03:50:06.811Z,8.57
2017-12-24T03:52:36.231Z,9.13
2017-12-24T03:55:05.982Z,9.50
2017-12-24T03:57:34.876Z,9.73
2017-12-24T04:00:03.717Z,10.17
2017-12-24T04:02:32.549Z,8.83
2017-12-24T04:05:01.448Z,8.07
2017-12-24T04:07:30.295Z,8.87
2017-12-24T04:09:59.674Z,8.40
2017-12-24T04:12:28.535Z,8.30
2017-12-24T04:14:57.371Z,8.37
2017-12-24T04:17:26.249Z,8.33
2017-12-24T04:19:55.143Z,8.70
2017-12-24T04:22:23.987Z,8.03
2017-12-24T04:24:52.831Z,7.90
2017-12-24T04:27:21.698Z,7.80
2017-12-24T04:29:50.555Z,6.90
2017-12-24T04:32:20.313Z,7.63
2017-12-24T04:34:49.199Z,7.17
2017-12-24T04:37:18.033Z,7.50
2017-12-24T04:39:46.892Z,7.37
2017-12-24T04:42:15.837Z,6.50
2017-12-24T04:44:44.674Z,6.70
2017-12-24T04:47:13.511Z,6.87
2017-12-24T04:49:42.383Z,6.70
2017-12-24T04:52:11.235Z,6.50
2017-12-24T04:54:40.073Z,7.50
2017-12-24T04:57:08.938Z,6.17
2017-12-24T04:59:37.852Z,5.90
2017-12-24T05:02:06.682Z,6.50
2017-12-24T05:04:36.271Z,6.43
2017-12-24T05:07:05.201Z,6.43
2017-12-24T05:09:34.040Z,6.60
2017-12-24T05:12:02.913Z,6.10
2017-12-24T05:14:31.771Z,5.70
2017-12-24T05:17:00.618Z,6.10
2017-12-24T05:19:29.503Z,6.23
2017-12-24T05:21:58.334Z,5.10
2017-12-24T05:24:27.165Z,6.00
2017-12-24T05:26:56.033Z,6.77
2017-12-24T05:29:24.872Z,5.90
2017-12-24T05:31:53.701Z,6.60
2017-12-24T05:34:22.602Z,6.33
2017-12-24T05:36:51.509Z,6.80
2017-12-24T05:39:20.356Z,6.93
2017-12-24T05:41:49.253Z,6.93
2017-12-24T05:44:18.347Z,6.97
2017-12-24T05:46:47.182Z,7.10
2017-12-24T05:49:16.045Z,7.13
2017-12-24T05:51:45.536Z,7.10
2017-12-24T05:54:14.371Z,7.13
2017-12-24T05:56:43.238Z,7.30
2017-12-24T05:59:12.179Z,7.07
2017-12-24T06:01:41.019Z,6.80
2017-12-24T06:04:09.935Z,6.97
2017-12-24T06:06:38.777Z,6.87
2017-12-24T06:09:07.607Z,6.80
2017-12-24T06:11:36.507Z,6.77
2017-12-24T06:14:05.343Z,6.80
2017-12-24T06:16:34.203Z,6.57
2017-12-24T06:19:03.061Z,6.20
2017-12-24T06:21:31.907Z,6.60
2017-12-24T06:24:00.751Z,6.17
2017-12-24T06:26:29.621Z,5.60
2017-12-24T06:28:58.517Z,6.23
2017-12-24T06:31:27.367Z,6.10
2017-12-24T06:33:56.273Z,6.93
2017-12-24T06:36:25.108Z,6.27
2017-12-24T06:38:53.945Z,12.00
2017-12-24T06:41:22.825Z,6.40
2017-12-24T06:43:51.672Z,6.07
2017-12-24T06:46:20.521Z,6.43
2017-12-24T06:48:49.385Z,6.17
2017-12-24T06:51:18.221Z,5.83
2017-12-24T06:53:47.059Z,5.90
2017-12-24T06:56:15.941Z,6.60
2017-12-24T06:58:44.814Z,5.57
2017-12-24T07:01:13.643Z,6.43
2017-12-24T07:03:42.570Z,6.27
2017-12-24T07:06:11.595Z,11.50
2017-12-24T07:08:40.505Z,7.40
2017-12-24T07:11:09.831Z,7.37
2017-12-24T07:13:38.663Z,6.60
2017-12-24T07:16:07.517Z,7.20
2017-12-24T07:18:36.391Z,8.43
2017-12-24T07:21:05.249Z,6.20
2017-12-24T07:23:34.087Z,5.93
2017-12-24T07:26:02.955Z,6.67
2017-12-24T07:28:31.814Z,5.90
2017-12-24T07:31:00.701Z,6.30
2017-12-24T07:33:29.571Z,6.10
2017-12-24T07:35:58.403Z,6.07
2017-12-24T07:38:27.265Z,5.30
2017-12-24T07:40:56.127Z,5.00
2017-12-24T07:43:24.962Z,4.93
2017-12-24T07:45:53.792Z,5.43
2017-12-24T07:48:22.676Z,5.53
2017-12-24T07:50:51.509Z,5.20
2017-12-24T07:53:20.363Z,5.73
2017-12-24T07:55:49.231Z,6.20
2017-12-24T07:58:18.072Z,5.53
2017-12-24T08:00:46.924Z,5.73
2017-12-24T08:03:16.518Z,5.90
2017-12-24T08:05:45.353Z,6.00
2017-12-24T08:08:14.224Z,5.80
2017-12-24T08:10:43.924Z,6.03
2017-12-24T08:13:12.817Z,6.40
2017-12-24T08:15:41.659Z,6.87
2017-12-24T08:18:11.076Z,7.00
2017-12-24T08:20:40.701Z,7.10
2017-12-24T08:23:09.550Z,6.90
2017-12-24T08:25:38.471Z,6.70
2017-12-24T08:28:07.325Z,6.90
2017-12-24T08:30:36.235Z,6.83
2017-12-24T08:33:05.113Z,6.73
2017-12-24T08:35:35.635Z,6.67
2017-12-24T08:38:04.531Z,7.07
2017-12-24T08:40:34.109Z,6.83
2017-12-24T08:43:03.909Z,6.90
2017-12-24T08:45:33.523Z,5.40
2017-12-24T08:48:02.419Z,7.70
2017-12-24T08:50:31.268Z,7.07
2017-12-24T08:53:00.145Z,7.07
2017-12-24T08:55:28.983Z,7.43
2017-12-24T08:57:57.828Z,7.90
2017-12-24T09:00:26.816Z,8.30
2017-12-24T09:02:55.653Z,8.23
2017-12-24T09:05:24.534Z,7.20
2017-12-24T09:07:53.399Z,7.13
2017-12-24T09:10:22.273Z,9.00
2017-12-24T09:12:51.271Z,9.00
2017-12-24T09:15:20.195Z,9.63
2017-12-24T09:17:49.439Z,7.53
2017-12-24T09:20:18.335Z,6.20
2017-12-24T09:22:47.549Z,8.00
2017-12-24T09:25:16.393Z,6.33
2017-12-24T09:27:45.361Z,6.77
2017-12-24T09:30:14.235Z,7.93
2017-12-24T09:32:43.348Z,7.57
2017-12-24T09:35:13.155Z,7.20
2017-12-24T09:37:42.963Z,7.27
2017-12-24T09:40:12.063Z,7.47
2017-12-24T09:42:41.041Z,7.73
2017-12-24T09:45:10.093Z,7.23
2017-12-24T09:47:38.938Z,7.77
2017-12-24T09:50:07.781Z,7.53
2017-12-24T09:52:36.663Z,7.63
2017-12-24T09:55:06.175Z,6.63
2017-12-24T09:57:35.019Z,7.50
2017-12-24T10:00:03.908Z,6.87
2017-12-24T10:02:32.773Z,7.00
2017-12-24T10:05:01.619Z,7.30
2017-12-24T10:07:30.481Z,7.40
2017-12-24T10:09:59.321Z,6.87
2017-12-24T10:12:28.167Z,7.30
2017-12-24T10:14:57.041Z,6.83
2017-12-24T10:17:25.887Z,7.10
2017-12-24T10:19:55.619Z,7.23
2017-12-24T10:22:24.544Z,7.60
2017-12-24T10:24:54.413Z,7.10
2017-12-24T10:27:23.963Z,8.47
2017-12-24T10:29:52.935Z,8.17
2017-12-24T10:32:21.775Z,7.83
2017-12-24T10:34:50.615Z,7.97
2017-12-24T10:37:19.523Z,7.60
2017-12-24T10:39:48.363Z,7.17
2017-12-24T10:42:17.211Z,7.57
2017-12-24T10:44:46.070Z,7.27
2017-12-24T10:47:14.927Z,6.80
2017-12-24T10:49:44.651Z,7.27
2017-12-24T10:52:13.537Z,7.87
2017-12-24T10:54:42.374Z,9.40
2017-12-24T10:57:11.247Z,12.57
2017-12-24T10:59:40.118Z,7.73
2017-12-24T11:02:08.963Z,7.20
2017-12-24T11:04:37.873Z,5.97
2017-12-24T11:07:06.729Z,6.47
2017-12-24T11:09:35.580Z,6.37
2017-12-24T11:12:04.435Z,6.77
2017-12-24T11:14:33.985Z,7.13
2017-12-24T11:17:02.867Z,7.30
2017-12-24T11:19:32.242Z,7.30
2017-12-24T11:22:01.089Z,6.37
2017-12-24T11:24:29.931Z,6.63
2017-12-24T11:26:58.766Z,6.50
2017-12-24T11:29:27.646Z,7.00
2017-12-24T11:31:56.545Z,6.83
2017-12-24T11:34:25.387Z,6.93
2017-12-24T11:36:55.191Z,6.80
2017-12-24T11:39:24.036Z,7.13
2017-12-24T11:41:52.883Z,6.83
2017-12-24T11:44:21.761Z,6.80
2017-12-24T11:46:50.611Z,6.73
2017-12-24T11:49:19.449Z,7.63
2017-12-24T11:51:48.319Z,9.80
2017-12-24T11:54:17.165Z,18.57
2017-12-24T11:56:47.245Z,13.83
2017-12-24T11:59:16.129Z,18.63
2017-12-24T12:01:45.256Z,8.07
2017-12-24T12:04:14.091Z,7.20
2017-12-24T12:06:43.739Z,7.33
2017-12-24T12:09:12.582Z,7.73
2017-12-24T12:11:41.407Z,7.40
2017-12-24T12:14:10.302Z,6.63
2017-12-24T12:16:39.153Z,6.90
2017-12-24T12:19:08.013Z,6.63
2017-12-24T12:21:37.159Z,6.00
2017-12-24T12:24:06.173Z,6.20
2017-12-24T12:26:35.395Z,4.63
2017-12-24T12:29:04.413Z,6.27
2017-12-24T12:31:33.949Z,5.50
2017-12-24T12:34:02.813Z,5.90
2017-12-24T12:36:31.677Z,5.53
2017-12-24T12:39:00.565Z,5.63
2017-12-24T12:41:29.405Z,5.67
2017-12-24T12:43:58.295Z,5.07
2017-12-24T12:46:28.027Z,5.50
2017-12-24T12:48:57.164Z,5.07
2017-12-24T12:51:26.138Z,5.07
2017-12-24T12:53:55.108Z,5.33
2017-12-24T12:56:23.974Z,5.37
2017-12-24T12:58:52.833Z,5.60
2017-12-24T13:01:21.702Z,5.17
2017-12-24T13:03:50.576Z,5.53
2017-12-24T13:06:19.441Z,5.17
2017-12-24T13:08:48.287Z,5.47
2017-12-24T13:11:17.143Z,6.17
2017-12-24T13:13:46.025Z,6.67
2017-12-24T13:16:14.873Z,8.20
2017-12-24T13:18:43.741Z,7.60
2017-12-24T13:21:12.636Z,7.97
2017-12-24T13:23:41.467Z,7.70
2017-12-24T13:26:10.296Z,10.47
2017-12-24T13:28:39.167Z,6.93
2017-12-24T13:31:08.628Z,6.77
2017-12-24T13:33:37.521Z,5.77
2017-12-24T13:36:06.402Z,6.90
2017-12-24T13:38:35.257Z,6.70
2017-12-24T13:41:04.116Z,6.77
2017-12-24T13:43:33.693Z,6.07
2017-12-24T13:46:02.675Z,6.80
2017-12-24T13:48:31.511Z,6.60
2017-12-24T13:51:00.438Z,6.53
2017-12-24T13:53:29.287Z,6.50
2017-12-24T13:55:58.143Z,6.50
2017-12-24T13:58:27.092Z,6.67
2017-12-24T14:00:55.953Z,6.40
2017-12-24T14:03:24.785Z,6.10
2017-12-24T14:05:53.693Z,6.87
2017-12-24T14:08:22.538Z,5.90
2017-12-24T14:10:51.409Z,9.83
2017-12-24T14:13:20.311Z,7.00
2017-12-24T14:15:50.049Z,11.93
2017-12-24T14:18:18.886Z,6.27
2017-12-24T14:20:48.709Z,7.90
2017-12-24T14:23:17.547Z,6.40
2017-12-24T14:25:46.413Z,7.83
2017-12-24T14:28:15.301Z,7.10
2017-12-24T14:30:44.173Z,7.07
2017-12-24T14:33:13.025Z,7.40
2017-12-24T14:35:42.730Z,7.80
2017-12-24T14:38:11.579Z,7.53
2017-12-24T14:40:40.435Z,7.33
2017-12-24T14:43:09.310Z,7.00
2017-12-24T14:45:39.168Z,7.47
2017-12-24T14:48:08.028Z,7.13
2017-12-24T14:50:36.917Z,11.80
2017-12-24T14:53:05.780Z,7.47
2017-12-24T14:55:34.674Z,7.10
2017-12-24T14:58:03.557Z,5.73
2017-12-24T15:00:32.463Z,7.13
2017-12-24T15:03:01.795Z,6.87
2017-12-24T15:05:30.721Z,7.00
2017-12-24T15:07:59.566Z,6.07
2017-12-24T15:10:28.417Z,7.43
2017-12-24T15:12:57.301Z,6.47
2017-12-24T15:15:26.139Z,5.40
2017-12-24T15:17:56.205Z,4.77
2017-12-24T15:20:25.079Z,5.17
2017-12-24T15:22:53.958Z,5.30
2017-12-24T15:25:22.821Z,6.40
2017-12-24T15:27:51.715Z,6.23
2017-12-24T15:30:20.689Z,6.30
2017-12-24T15:32:49.541Z,5.57
2017-12-24T15:35:18.400Z,6.03
2017-12-24T15:37:47.234Z,6.07
2017-12-24T15:40:16.083Z,6.07
2017-12-24T15:42:45.010Z,6.20
2017-12-24T15:45:13.857Z,6.17
2017-12-24T15:47:43.298Z,6.23
2017-12-24T15:50:12.165Z,6.10
2017-12-24T15:52:41.011Z,6.10
2017-12-24T15:55:10.110Z,6.07
2017-12-24T15:57:39.007Z,6.30
2017-12-24T16:00:07.844Z,6.97
2017-12-24T16:02:36.739Z,6.30
2017-12-24T16:05:05.618Z,6.43
2017-12-24T16:07:34.457Z,5.57
2017-12-24T16:10:03.359Z,5.97
2017-12-24T16:12:32.209Z,6.00
2017-12-24T16:15:01.665Z,7.00
2017-12-24T16:17:30.495Z,7.47
2017-12-24T16:19:59.392Z,7.23
2017-12-24T16:22:28.231Z,7.50
2017-12-24T16:24:57.083Z,7.90
2017-12-24T16:27:25.966Z,7.80
2017-12-24T16:29:54.804Z,7.30
2017-12-24T16:32:23.700Z,8.97
2017-12-24T16:34:52.594Z,9.03
2017-12-24T16:37:21.441Z,8.80
2017-12-24T16:39:50.376Z,8.50
2017-12-24T16:42:19.235Z,10.03
2017-12-24T16:44:48.723Z,9.80
2017-12-24T16:47:18.165Z,8.57
2017-12-24T16:49:47.638Z,8.23
2017-12-24T16:52:17.097Z,8.20
2017-12-24T16:54:46.011Z,8.20
2017-12-24T16:57:15.501Z,8.70
2017-12-24T16:59:44.509Z,7.93
2017-12-24T17:02:13.574Z,7.40
2017-12-24T17:04:43.285Z,6.87
2017-12-24T17:07:12.145Z,7.03
2017-12-24T17:09:41.031Z,6.70
2017-12-24T17:12:09.890Z,6.47
2017-12-24T17:14:38.739Z,6.30
2017-12-24T17:17:07.583Z,7.47
2017-12-24T17:19:36.467Z,8.53
2017-12-24T17:22:05.471Z,8.73
2017-12-24T17:24:34.449Z,8.93
2017-12-24T17:27:03.463Z,10.10
2017-12-24T17:29:32.453Z,8.43
2017-12-24T17:32:02.379Z,10.17
2017-12-24T17:34:31.401Z,8.23
2017-12-24T17:37:00.239Z,8.00
2017-12-24T17:39:29.075Z,7.77
2017-12-24T17:41:58.003Z,8.13
2017-12-24T17:44:26.830Z,9.40
2017-12-24T17:46:55.971Z,6.10
2017-12-24T17:49:24.851Z,7.67
2017-12-24T17:51:53.715Z,7.93
2017-12-24T17:54:22.606Z,7.03
2017-12-24T17:56:51.740Z,8.37
2017-12-24T17:59:20.639Z,6.97
2017-12-24T18:01:49.711Z,6.37
2017-12-24T18:04:18.586Z,6.70
2017-12-24T18:06:47.447Z,6.70
2017-12-24T18:09:16.370Z,6.20
2017-12-24T18:11:45.227Z,6.60
2017-12-24T18:14:14.231Z,6.77
2017-12-24T18:16:43.091Z,7.60
2017-12-24T18:19:11.983Z,7.77
2017-12-24T18:21:41.053Z,7.70
2017-12-24T18:24:09.907Z,7.07
2017-12-24T18:26:38.799Z,7.10
2017-12-24T18:29:08.635Z,6.53
2017-12-24T18:31:37.481Z,6.80
2017-12-24T18:34:06.351Z,6.77
2017-12-24T18:36:35.197Z,6.10
2017-12-24T18:39:04.353Z,5.17
2017-12-24T18:41:33.218Z,5.37
2017-12-24T18:44:02.103Z,5.57
2017-12-24T18:46:31.565Z,5.20
2017-12-24T18:49:00.423Z,5.27
2017-12-24T18:51:29.286Z,5.63
2017-12-24T18:53:58.145Z,4.90
2017-12-24T18:56:27.001Z,4.77
2017-12-24T18:58:55.835Z,5.13
2017-12-24T19:01:24.749Z,5.07
2017-12-24T19:03:54.176Z,6.07
2017-12-24T19:06:23.617Z,4.63
2017-12-24T19:08:52.514Z,4.67
2017-12-24T19:11:21.385Z,4.80
2017-12-24T19:13:50.217Z,4.50
2017-12-24T19:16:19.079Z,3.90
2017-12-24T19:18:48.810Z,4.33
2017-12-24T19:21:18.399Z,4.37
2017-12-24T19:23:47.261Z,4.27
2017-12-24T19:26:16.115Z,3.47
2017-12-24T19:28:44.963Z,3.53
2017-12-24T19:31:13.885Z,3.00
2017-12-24T19:33:42.774Z,3.20
2017-12-24T19:36:11.941Z,3.50
2017-12-24T19:38:40.823Z,12.50
2017-12-24T19:41:09.721Z,2.67
2017-12-24T19:43:39.522Z,6.47
2017-12-24T19:46:08.915Z,4.23
2017-12-24T19:48:37.787Z,4.23
2017-12-24T19:51:06.661Z,2.60
2017-12-24T19:53:35.534Z,3.37
2017-12-24T19:56:04.435Z,3.80
2017-12-24T19:58:33.313Z,2.70
2017-12-24T20:01:02.178Z,3.43
2017-12-24T20:03:31.019Z,2.80
2017-12-24T20:05:59.907Z,2.40
2017-12-24T20:08:28.791Z,2.70
2017-12-24T20:10:57.635Z,2.83
2017-12-24T20:13:26.875Z,3.00
2017-12-24T20:15:55.751Z,2.70
2017-12-24T20:18:24.632Z,3.33
2017-12-24T20:20:53.515Z,3.10
2017-12-24T20:23:22.353Z,3.10
2017-12-24T20:25:51.201Z,2.80
2017-12-24T20:28:20.075Z,3.53
2017-12-24T20:30:48.922Z,3.37
2017-12-24T20:33:17.791Z,3.43
2017-12-24T20:35:46.726Z,2.70
2017-12-24T20:38:15.569Z,2.90
2017-12-24T20:40:44.471Z,3.20
2017-12-24T20:43:13.333Z,2.60
2017-12-24T20:45:42.171Z,2.80
2017-12-24T20:48:11.029Z,2.37
2017-12-24T20:50:39.945Z,3.00
2017-12-24T20:53:08.811Z,2.70
2017-12-24T20:55:37.655Z,3.20
2017-12-24T20:58:06.517Z,2.53
2017-12-24T21:00:35.441Z,2.80
2017-12-24T21:03:05.353Z,3.00
2017-12-24T21:05:34.209Z,3.00
2017-12-24T21:08:03.447Z,5.70
2017-12-24T21:10:32.299Z,3.93
2017-12-24T21:13:01.205Z,3.17
2017-12-24T21:15:30.049Z,3.87
2017-12-24T21:17:58.885Z,3.53
2017-12-24T21:20:27.816Z,4.10
2017-12-24T21:22:56.675Z,21.97
2017-12-24T21:25:25.538Z,6.10
2017-12-24T21:27:54.519Z,3.67
2017-12-24T21:30:23.343Z,3.47
2017-12-24T21:32:52.175Z,3.20
2017-12-24T21:35:21.070Z,3.47
2017-12-24T21:37:49.901Z,3.60
2017-12-24T21:40:18.843Z,3.47
2017-12-24T21:42:49.841Z,3.03
2017-12-24T21:45:18.802Z,3.67
2017-12-24T21:47:47.714Z,4.10
2017-12-24T21:50:16.581Z,3.90
2017-12-24T21:52:45.437Z,3.80
2017-12-24T21:55:14.323Z,3.37
2017-12-24T21:57:43.195Z,3.63
2017-12-24T22:00:12.072Z,3.90
2017-12-24T22:02:41.657Z,3.70
2017-12-24T22:05:10.538Z,3.77
2017-12-24T22:07:39.386Z,3.67
2017-12-24T22:10:08.265Z,3.83
2017-12-24T22:12:37.122Z,3.90
2017-12-24T22:15:05.981Z,4.20
2017-12-24T22:17:34.922Z,4.13
2017-12-24T22:20:03.819Z,4.07
2017-12-24T22:22:32.666Z,4.10
2017-12-24T22:25:01.525Z,3.80
2017-12-24T22:27:30.414Z,3.87
2017-12-24T22:29:59.258Z,3.70
2017-12-24T22:32:28.161Z,3.90
2017-12-24T22:34:57.007Z,4.50
2017-12-24T22:37:26.119Z,4.67
2017-12-24T22:39:55.077Z,4.50
2017-12-24T22:42:23.937Z,4.07
2017-12-24T22:44:52.819Z,4.10
2017-12-24T22:47:21.769Z,4.40
2017-12-24T22:49:50.610Z,3.53
2017-12-24T22:52:19.461Z,3.80
2017-12-24T22:54:48.329Z,3.93
2017-12-24T22:57:17.187Z,3.80
2017-12-24T22:59:46.103Z,3.60
2017-12-24T23:02:15.056Z,3.90
2017-12-24T23:04:43.933Z,3.27
2017-12-24T23:07:13.404Z,3.93
2017-12-24T23:09:42.271Z,4.10
2017-12-24T23:12:11.757Z,3.50
2017-12-24T23:14:40.915Z,3.70
2017-12-24T23:17:09.887Z,3.93
2017-12-24T23:19:38.824Z,4.07
2017-12-24T23:22:07.759Z,4.33
2017-12-24T23:24:36.632Z,4.40
2017-12-24T23:27:06.599Z,4.27
2017-12-24T23:29:35.519Z,4.27
2017-12-24T23:32:04.365Z,4.10
2017-12-24T23:34:33.232Z,4.40
2017-12-24T23:37:02.159Z,4.60
2017-12-24T23:39:31.642Z,4.20
2017-12-24T23:42:00.481Z,4.47
2017-12-24T23:44:29.342Z,4.60
2017-12-24T23:46:58.178Z,4.50
2017-12-24T23:49:27.033Z,4.77
2017-12-24T23:51:55.924Z,4.70
2017-12-24T23:54:24.746Z,4.93
2017-12-24T23:56:53.587Z,4.67
2017-12-24T23:59:22.623Z,4.30
